Time;durP1;ratioP1;P1;durP2;ratioP2;P2;SDS_P1;SDS_P2;PMS_P1;PMS_P2;Temp;Humidity;BMP_temperature;BMP_pressure;BME280_temperature;BME280_humidity;BME280_pressure;Samples;Min_cycle;Max_cycle;Signal;HPM_P1;HPM_P2
2022/12/23 00:02:16;;;;;;;;;;;;;;;13.69;46.18;99571.09;4959019;28;111691;-69
2022/12/23 00:04:42;;;;;;;;;;;;;;;13.70;46.55;99569.19;4935812;28;128507;-65
2022/12/23 00:07:08;;;;;;;;;;;;;;;13.68;46.54;99564.06;4953295;28;127207;-67
2022/12/23 00:09:34;;;;;;;;;;;;;;;13.70;46.50;99564.56;4955845;28;121056;-65
2022/12/23 00:17:29;;;;;;;;;;;;;;;13.72;46.57;99567.78;4946633;28;98058;-68
2022/12/23 00:19:55;;;;;;;;;;;;;;;13.72;46.44;99565.06;4946503;28;100719;-65
2022/12/23 00:23:03;;;;;;;;;;;;;;;13.72;46.31;99554.22;4939886;28;128295;-68
2022/12/23 00:25:07;;;;;;;;;;;;;;;13.73;46.15;99553.09;4960895;28;98037;-68
2022/12/23 00:27:33;;;;;;;;;;;;;;;13.74;46.60;99545.78;4942163;28;118556;-65
2022/12/23 00:29:59;;;;;;;;;;;;;;;13.74;46.44;99545.78;4957187;28;123084;-68
2022/12/23 00:32:25;;;;;;;;;;;;;;;13.75;46.22;99539.25;4945368;28;128087;-68
2022/12/23 00:34:50;;;;;;;;;;;;;;;13.75;46.12;99531.13;4962358;28;128240;-69
2022/12/23 00:37:16;;;;;;;;;;;;;;;13.76;46.23;99530.03;4975747;27;127010;-68
2022/12/23 00:45:14;;;;;;;;;;;;;;;13.78;46.19;99525.09;4959155;28;98000;-70
2022/12/23 00:50:25;;;;;;;;;;;;;;;13.79;46.14;99520.47;4957858;28;98299;-65
2022/12/23 00:52:51;;;;;;;;;;;;;;;13.78;46.57;99519.66;4960598;28;102706;-68
2022/12/23 00:55:17;;;;;;;;;;;;;;;13.79;46.51;99529.38;4956751;28;117091;-69
2022/12/23 00:57:43;;;;;;;;;;;;;;;13.80;46.53;99520.19;4943697;28;128348;-65
2022/12/23 01:00:09;;;;;;;;;;;;;;;13.79;46.27;99515.84;4943889;28;119673;-69
2022/12/23 01:05:35;;;;;;;;;;;;;;;13.80;46.23;99509.34;4957624;28;98146;-66
2022/12/23 01:08:06;;;;;;;;;;;;;;;13.81;46.48;99504.72;4962122;28;98139;-65
2022/12/23 01:10:36;;;;;;;;;;;;;;;13.81;46.21;99508.22;4956093;28;111578;-65
2022/12/23 01:13:02;;;;;;;;;;;;;;;13.81;46.16;99508.22;4922822;28;128760;-65
2022/12/23 01:15:28;;;;;;;;;;;;;;;13.80;46.18;99501.22;4931847;28;98396;-69
2022/12/23 01:17:54;;;;;;;;;;;;;;;13.81;46.18;99496.59;4943003;28;119623;-65
2022/12/23 01:20:20;;;;;;;;;;;;;;;13.82;46.19;99490.06;4975884;28;121900;-65
2022/12/23 01:22:46;;;;;;;;;;;;;;;13.82;46.30;99493.56;4975010;28;126949;-68
2022/12/23 01:25:12;;;;;;;;;;;;;;;13.82;46.68;99487.34;4958786;28;128474;-65
2022/12/23 01:27:38;;;;;;;;;;;;;;;13.83;46.33;99486.22;4960506;28;97950;-68
2022/12/23 01:30:05;;;;;;;;;;;;;;;13.83;46.14;99481.59;4952089;28;123073;-65
2022/12/23 01:32:30;;;;;;;;;;;;;;;13.84;46.28;99479.72;4977744;28;112637;-69
2022/12/23 01:34:56;;;;;;;;;;;;;;;13.83;46.54;99478.91;4960588;28;126122;-68
2022/12/23 01:37:22;;;;;;;;;;;;;;;13.84;46.46;99475.09;4957550;28;128955;-66
2022/12/23 01:39:48;;;;;;;;;;;;;;;13.84;46.16;99469.69;4976400;28;121763;-66
2022/12/23 01:45:04;;;;;;;;;;;;;;;13.85;46.16;99468.56;4956234;28;98033;-65
2022/12/23 01:47:53;;;;;;;;;;;;;;;13.85;46.17;99465.84;4954536;28;98998;-66
2022/12/23 01:50:22;;;;;;;;;;;;;;;13.85;46.38;99468.56;4957452;28;98152;-65
2022/12/23 01:53:08;;;;;;;;;;;;;;;13.86;46.53;99463.94;4944625;28;98222;-65
2022/12/23 01:55:37;;;;;;;;;;;;;;;13.86;46.21;99464.75;4958058;28;98204;-68
2022/12/23 01:58:12;;;;;;;;;;;;;;;13.86;46.61;99469.38;4958802;28;99558;-68
2022/12/23 02:03:41;;;;;;;;;;;;;;;13.87;46.37;99458.22;4944824;28;98248;-69
2022/12/23 02:09:18;;;;;;;;;;;;;;;13.87;46.44;99455.53;4958149;28;97970;-65
2022/12/23 02:12:02;;;;;;;;;;;;;;;13.88;46.54;99453.59;4958127;28;98101;-68
2022/12/23 02:17:51;;;;;;;;;;;;;;;13.89;46.56;99458.69;4970946;28;98168;-68
2022/12/23 02:20:42;;;;;;;;;;;;;;;13.88;46.25;99465.25;4972095;28;99429;-68
2022/12/23 02:23:33;;;;;;;;;;;;;;;13.88;46.21;99459.81;4971840;28;98116;-68
2022/12/23 02:26:27;;;;;;;;;;;;;;;13.88;46.69;99453.59;4972011;28;98508;-65
2022/12/23 02:29:16;;;;;;;;;;;;;;;13.89;46.62;99455.19;4972409;28;99075;-68
2022/12/23 02:31:46;;;;;;;;;;;;;;;13.87;46.50;99455.53;4956054;28;113840;-68
2022/12/23 02:34:16;;;;;;;;;;;;;;;13.88;46.59;99456.31;4955647;28;98857;-66
2022/12/23 02:36:51;;;;;;;;;;;;;;;13.89;46.58;99457.91;4938208;28;126554;-68
2022/12/23 02:39:43;;;;;;;;;;;;;;;13.89;46.55;99466.03;4955553;28;127486;-68
2022/12/23 02:42:19;;;;;;;;;;;;;;;13.89;46.48;99457.91;4956017;28;98363;-65
2022/12/23 02:44:57;;;;;;;;;;;;;;;13.89;46.51;99456.00;4958641;28;116428;-68
2022/12/23 02:47:26;;;;;;;;;;;;;;;13.89;46.19;99456.00;4954947;28;125096;-65
2022/12/23 02:49:56;;;;;;;;;;;;;;;13.90;46.21;99443.25;4952582;28;118847;-68
2022/12/23 02:52:25;;;;;;;;;;;;;;;13.91;46.23;99444.84;4939069;28;114219;-65
2022/12/23 02:54:57;;;;;;;;;;;;;;;13.90;46.26;99445.94;4936987;28;119675;-65
2022/12/23 02:57:27;;;;;;;;;;;;;;;13.90;46.40;99435.91;4938886;28;99306;-68
2022/12/23 02:59:53;;;;;;;;;;;;;;;13.91;46.48;99431.28;4954362;28;98240;-68
2022/12/23 03:02:18;;;;;;;;;;;;;;;13.90;46.18;99427.78;4940836;28;127399;-65
2022/12/23 03:04:44;;;;;;;;;;;;;;;13.91;46.41;99432.13;4955292;28;122019;-65
2022/12/23 03:07:19;;;;;;;;;;;;;;;13.92;46.28;99435.63;4953982;28;127176;-68
2022/12/23 03:09:57;;;;;;;;;;;;;;;13.92;46.21;99430.19;4940807;28;98018;-65
2022/12/23 03:12:48;;;;;;;;;;;;;;;13.92;46.50;99431.00;4939480;28;98376;-65
2022/12/23 03:15:32;;;;;;;;;;;;;;;13.92;46.25;99420.16;4955000;28;98144;-65
2022/12/23 03:18:04;;;;;;;;;;;;;;;13.92;46.33;99428.28;4969038;28;98817;-65
2022/12/23 03:21:03;;;;;;;;;;;;;;;13.93;46.45;99419.03;4974017;28;98449;-65
2022/12/23 03:23:29;;;;;;;;;;;;;;;13.94;46.32;99411.69;4965871;28;114851;-68
2022/12/23 03:26:17;;;;;;;;;;;;;;;13.94;46.39;99420.63;4956947;28;111881;-65
2022/12/23 03:28:53;;;;;;;;;;;;;;;13.94;46.63;99417.91;4943012;28;122485;-68
2022/12/23 03:31:24;;;;;;;;;;;;;;;13.95;46.14;99413.28;4966998;28;102594;-65
2022/12/23 03:34:11;;;;;;;;;;;;;;;13.95;46.70;99407.88;4945565;28;98066;-68
2022/12/23 03:36:41;;;;;;;;;;;;;;;13.95;46.28;99419.53;4942342;28;97890;-68
2022/12/23 03:39:09;;;;;;;;;;;;;;;13.95;46.22;99411.41;4936764;28;130493;-68
2022/12/23 03:41:39;;;;;;;;;;;;;;;13.96;46.47;99420.31;4955942;28;118640;-65
2022/12/23 03:44:14;;;;;;;;;;;;;;;13.96;46.53;99410.28;4953083;28;97936;-65
2022/12/23 03:47:13;;;;;;;;;;;;;;;13.97;46.57;99417.28;4944179;28;117954;-65
2022/12/23 03:50:01;;;;;;;;;;;;;;;13.97;46.33;99411.88;4917975;28;99754;-68
2022/12/23 03:52:35;;;;;;;;;;;;;;;13.98;46.37;99412.66;4955967;28;98003;-65
2022/12/23 03:55:03;;;;;;;;;;;;;;;13.98;46.39;99409.97;4946056;28;119774;-68
2022/12/23 03:58:22;;;;;;;;;;;;;;;13.99;46.55;99423.22;4958947;28;114089;-65
2022/12/23 04:00:54;;;;;;;;;;;;;;;14.00;46.34;99415.88;4902108;28;99573;-65
2022/12/23 04:03:25;;;;;;;;;;;;;;;14.00;46.57;99424.78;4946928;28;115999;-65
2022/12/23 04:05:53;;;;;;;;;;;;;;;14.02;46.24;99423.69;4944720;28;117281;-68
2022/12/23 04:08:23;;;;;;;;;;;;;;;14.00;46.36;99419.38;4852557;28;119773;-65
2022/12/23 04:10:49;;;;;;;;;;;;;;;14.02;46.69;99418.25;4944214;28;110461;-68
2022/12/23 04:13:15;;;;;;;;;;;;;;;14.01;46.35;99420.19;4962535;28;127216;-65
2022/12/23 04:15:41;;;;;;;;;;;;;;;14.01;46.29;99428.31;4946506;28;104095;-68
2022/12/23 04:18:07;;;;;;;;;;;;;;;14.03;46.62;99422.56;4943276;28;122956;-65
2022/12/23 04:20:33;;;;;;;;;;;;;;;14.03;46.61;99423.38;4942218;28;112867;-64
2022/12/23 04:22:59;;;;;;;;;;;;;;;14.04;46.58;99418.75;4959687;28;126414;-64
2022/12/23 04:25:25;;;;;;;;;;;;;;;14.05;46.49;99421.13;4955125;28;97992;-64
2022/12/23 04:27:51;;;;;;;;;;;;;;;14.06;46.46;99421.94;4959682;28;123632;-64
2022/12/23 04:30:17;;;;;;;;;;;;;;;14.05;46.24;99417.63;4956618;28;127789;-68
2022/12/23 04:32:43;;;;;;;;;;;;;;;14.06;46.61;99416.50;4961705;28;98296;-68
2022/12/23 04:35:09;;;;;;;;;;;;;;;14.06;46.52;99413.81;4962634;28;122816;-68
2022/12/23 04:37:35;;;;;;;;;;;;;;;14.07;46.61;99421.63;4945196;28;98044;-63
2022/12/23 04:40:01;;;;;;;;;;;;;;;14.06;46.32;99414.59;4943908;28;125945;-67
2022/12/23 04:42:27;;;;;;;;;;;;;;;14.09;46.28;99422.09;4942648;28;98326;-67
2022/12/23 04:44:53;;;;;;;;;;;;;;;14.09;46.60;99422.09;4957264;28;128443;-67
2022/12/23 04:47:19;;;;;;;;;;;;;;;14.10;46.44;99412.06;4964625;28;98053;-63
2022/12/23 04:49:45;;;;;;;;;;;;;;;14.10;46.73;99418.28;4945568;28;98252;-67
2022/12/23 04:52:11;;;;;;;;;;;;;;;14.12;46.51;99415.25;4944205;28;97943;-63
2022/12/23 04:54:36;;;;;;;;;;;;;;;14.12;46.42;99415.25;4930541;28;127539;-64
2022/12/23 04:57:02;;;;;;;;;;;;;;;14.14;46.62;99413.03;4944122;28;120468;-64
2022/12/23 04:59:30;;;;;;;;;;;;;;;14.15;46.23;99417.34;4960526;28;104873;-68
2022/12/23 05:01:56;;;;;;;;;;;;;;;14.15;46.34;99409.22;4944302;28;98216;-64
2022/12/23 05:04:22;;;;;;;;;;;;;;;14.16;46.46;99408.09;4944937;28;98049;-64
2022/12/23 05:06:48;;;;;;;;;;;;;;;14.17;46.32;99420.53;4939490;28;122066;-68
2022/12/23 05:09:14;;;;;;;;;;;;;;;14.17;46.26;99413.19;4943105;28;127914;-68
2022/12/23 05:11:40;;;;;;;;;;;;;;;14.19;46.21;99410.19;4942928;28;125925;-68
2022/12/23 05:14:07;;;;;;;;;;;;;;;14.19;46.68;99427.25;4940695;28;128591;-64
2022/12/23 05:16:33;;;;;;;;;;;;;;;14.20;46.38;99420.69;4939880;28;121532;-64
2022/12/23 05:18:59;;;;;;;;;;;;;;;14.21;46.48;99416.88;4944432;28;129046;-67
2022/12/23 05:21:25;;;;;;;;;;;;;;;14.22;46.64;99414.94;4943741;28;121442;-67
2022/12/23 05:23:51;;;;;;;;;;;;;;;14.22;46.37;99413.03;4944642;28;127860;-67
2022/12/23 05:26:17;;;;;;;;;;;;;;;14.23;46.41;99414.66;4958589;28;99728;-67
2022/12/23 05:28:44;;;;;;;;;;;;;;;14.24;46.32;99412.72;4958599;28;97938;-63
2022/12/23 05:31:10;;;;;;;;;;;;;;;14.26;46.33;99421.31;4956479;28;98601;-68
2022/12/23 05:33:36;;;;;;;;;;;;;;;14.27;46.29;99422.16;4931379;28;98941;-64
2022/12/23 05:36:02;;;;;;;;;;;;;;;14.27;46.46;99416.72;4957161;28;110140;-68
2022/12/23 05:38:28;;;;;;;;;;;;;;;14.28;46.38;99412.91;4943465;28;104834;-64
2022/12/23 05:40:54;;;;;;;;;;;;;;;14.28;46.66;99421.81;4944050;28;127691;-67
2022/12/23 05:43:20;;;;;;;;;;;;;;;14.30;46.58;99421.50;4942519;28;128592;-68
2022/12/23 05:45:46;;;;;;;;;;;;;;;14.30;46.71;99427.72;4960540;28;111697;-62
2022/12/23 05:48:12;;;;;;;;;;;;;;;14.31;46.34;99428.53;4944075;28;113271;-66
2022/12/23 05:50:38;;;;;;;;;;;;;;;14.32;46.36;99428.22;4942438;28;128159;-63
2022/12/23 05:53:05;;;;;;;;;;;;;;;14.32;46.44;99428.22;4957713;28;98489;-62
2022/12/23 05:55:31;;;;;;;;;;;;;;;14.33;46.44;99437.94;4953720;28;98296;-67
2022/12/23 05:57:57;;;;;;;;;;;;;;;14.33;46.88;99431.72;4943375;28;99666;-63
2022/12/23 06:00:23;;;;;;;;;;;;;;;14.34;46.66;99427.88;4930107;28;127370;-67
2022/12/23 06:02:48;;;;;;;;;;;;;;;14.35;46.76;99424.88;4943159;28;98042;-67
2022/12/23 06:05:14;;;;;;;;;;;;;;;14.35;46.35;99433.00;4938981;28;122167;-67
2022/12/23 06:07:40;;;;;;;;;;;;;;;14.36;46.46;99433.78;4937722;28;118379;-67
2022/12/23 06:10:07;;;;;;;;;;;;;;;14.36;46.68;99434.59;4942874;28;127649;-64
2022/12/23 06:12:33;;;;;;;;;;;;;;;14.37;46.69;99425.34;4926800;28;99682;-67
2022/12/23 06:14:59;;;;;;;;;;;;;;;14.37;46.49;99436.19;4969949;28;97818;-68
2022/12/23 06:17:25;;;;;;;;;;;;;;;14.37;46.41;99438.88;4942052;28;118325;-68
2022/12/23 06:19:51;;;;;;;;;;;;;;;14.38;46.36;99440.50;4961540;28;120573;-64
2022/12/23 06:22:17;;;;;;;;;;;;;;;14.39;46.47;99442.09;4940815;28;126444;-64
2022/12/23 06:24:46;;;;;;;;;;;;;;;14.39;46.73;99441.31;4955420;28;114200;-64
2022/12/23 06:27:12;;;;;;;;;;;;;;;14.39;46.44;99444.81;4925477;28;98138;-68
2022/12/23 06:29:38;;;;;;;;;;;;;;;14.39;46.36;99449.44;4923856;28;97955;-64
2022/12/23 06:32:04;;;;;;;;;;;;;;;14.40;46.38;99451.03;4958873;28;127046;-68
2022/12/23 06:34:30;;;;;;;;;;;;;;;14.39;46.77;99455.66;4952132;28;125485;-68
2022/12/23 06:36:56;;;;;;;;;;;;;;;14.40;46.48;99459.16;4940006;28;99721;-64
2022/12/23 06:39:22;;;;;;;;;;;;;;;14.40;46.61;99445.59;4953450;28;117909;-68
2022/12/23 06:41:48;;;;;;;;;;;;;;;14.41;46.39;99455.31;4952045;28;122114;-69
2022/12/23 06:44:14;;;;;;;;;;;;;;;14.41;46.62;99458.81;4956443;28;98120;-68
2022/12/23 06:46:39;;;;;;;;;;;;;;;14.42;46.60;99456.91;4942655;28;128395;-64
2022/12/23 06:49:06;;;;;;;;;;;;;;;14.41;46.58;99464.25;4942069;28;125767;-68
2022/12/23 06:51:32;;;;;;;;;;;;;;;14.41;46.47;99469.66;4936688;28;99777;-68
2022/12/23 06:53:58;;;;;;;;;;;;;;;14.41;46.60;99466.16;4934449;28;121337;-68
2022/12/23 06:56:24;;;;;;;;;;;;;;;14.41;46.69;99475.09;4936992;28;121410;-68
2022/12/23 06:58:51;;;;;;;;;;;;;;;14.42;46.66;99479.44;4937987;28;123989;-68
2022/12/23 07:01:20;;;;;;;;;;;;;;;14.43;46.71;99480.22;4949040;28;99202;-64
2022/12/23 07:03:46;;;;;;;;;;;;;;;14.42;46.45;99482.13;4956141;28;98538;-68
2022/12/23 07:06:12;;;;;;;;;;;;;;;14.42;46.48;99476.72;4936319;28;124150;-65
2022/12/23 07:08:37;;;;;;;;;;;;;;;14.43;46.23;99489.16;4938737;28;114544;-64
2022/12/23 07:11:04;;;;;;;;;;;;;;;14.43;46.66;99480.22;4952635;28;127500;-68
2022/12/23 07:13:30;;;;;;;;;;;;;;;14.44;46.46;99479.88;4937377;28;104078;-68
2022/12/23 07:15:56;;;;;;;;;;;;;;;14.44;46.75;99482.59;4952649;28;117783;-65
2022/12/23 07:18:22;;;;;;;;;;;;;;;14.44;46.55;99488.03;4970438;28;129638;-68
2022/12/23 07:20:49;;;;;;;;;;;;;;;14.44;46.50;99481.81;4942355;28;128157;-65
2022/12/23 07:23:15;;;;;;;;;;;;;;;14.45;46.62;99489.63;4940298;28;98124;-68
2022/12/23 07:25:41;;;;;;;;;;;;;;;14.46;46.51;99490.41;4942671;28;118379;-65
2022/12/23 07:28:06;;;;;;;;;;;;;;;14.46;46.85;99490.41;4957516;28;128580;-68
2022/12/23 07:30:32;;;;;;;;;;;;;;;14.46;46.45;99491.22;4963642;28;126315;-65
2022/12/23 07:32:58;;;;;;;;;;;;;;;14.48;46.48;99491.69;4944641;28;123427;-65
2022/12/23 07:35:24;;;;;;;;;;;;;;;14.49;46.39;99493.31;4945896;28;127930;-65
2022/12/23 07:37:52;;;;;;;;;;;;;;;14.51;46.60;99492.22;4941291;28;126671;-68
2022/12/23 07:40:17;;;;;;;;;;;;;;;14.51;46.51;99495.72;4940442;28;98168;-68
2022/12/23 07:42:46;;;;;;;;;;;;;;;14.54;46.63;99494.28;4946495;28;122728;-65
2022/12/23 07:45:12;;;;;;;;;;;;;;;14.55;46.69;99499.41;4928103;28;114266;-68
2022/12/23 07:47:38;;;;;;;;;;;;;;;14.56;46.49;99505.63;4961997;28;127481;-65
2022/12/23 07:50:04;;;;;;;;;;;;;;;14.57;46.50;99510.72;4960617;28;114486;-68
2022/12/23 07:52:30;;;;;;;;;;;;;;;14.58;46.49;99511.50;4962150;28;98566;-68
2022/12/23 07:54:56;;;;;;;;;;;;;;;14.58;46.40;99509.63;4938103;28;127847;-68
2022/12/23 07:57:23;;;;;;;;;;;;;;;14.59;46.45;99505.00;4938672;28;127406;-66
2022/12/23 07:59:49;;;;;;;;;;;;;;;14.59;46.69;99510.41;4942226;28;99318;-67
2022/12/23 08:02:15;;;;;;;;;;;;;;;14.57;46.42;99509.91;4955182;28;121831;-67
2022/12/23 08:04:40;;;;;;;;;;;;;;;14.56;46.69;99511.84;4942416;28;127801;-67
2022/12/23 08:07:06;;;;;;;;;;;;;;;14.54;46.42;99505.94;4942506;28;129029;-68
2022/12/23 08:09:32;;;;;;;;;;;;;;;14.56;46.38;99511.84;4955042;28;127753;-66
2022/12/23 08:11:58;;;;;;;;;;;;;;;14.59;46.59;99515.84;4957808;28;122524;-63
2022/12/23 08:14:24;;;;;;;;;;;;;;;14.57;46.72;99520.78;4939887;28;128239;-64
2022/12/23 08:16:50;;;;;;;;;;;;;;;14.54;46.44;99522.22;4944873;28;126927;-63
2022/12/23 08:19:16;;;;;;;;;;;;;;;14.55;46.56;99523.81;4943946;28;121107;-63
2022/12/23 08:21:42;;;;;;;;;;;;;;;14.54;46.67;99526.81;4947252;28;98202;-63
2022/12/23 08:24:08;;;;;;;;;;;;;;;14.52;46.68;99515.50;4959888;28;129019;-63
2022/12/23 08:26:34;;;;;;;;;;;;;;;14.53;46.74;99525.22;4961400;28;99942;-63
2022/12/23 08:29:00;;;;;;;;;;;;;;;14.56;46.47;99528.13;4945228;28;99991;-63
2022/12/23 08:31:27;;;;;;;;;;;;;;;14.59;46.31;99532.91;4953386;28;125141;-67
2022/12/23 08:33:54;;;;;;;;;;;;;;;14.59;46.39;99527.47;4922716;28;122609;-67
2022/12/23 08:36:25;;;;;;;;;;;;;;;14.60;46.54;99528.28;4952735;28;98321;-67
2022/12/23 08:38:52;;;;;;;;;;;;;;;14.61;46.76;99533.38;4939659;28;100071;-63
2022/12/23 08:41:20;;;;;;;;;;;;;;;14.63;46.46;99539.28;4952401;28;98486;-64
2022/12/23 08:43:46;;;;;;;;;;;;;;;14.65;46.71;99530.84;4967482;28;123875;-64
2022/12/23 08:46:12;;;;;;;;;;;;;;;14.66;46.34;99541.38;4956583;28;127145;-63
2022/12/23 08:48:38;;;;;;;;;;;;;;;14.66;46.35;99537.88;4958521;28;127786;-67
2022/12/23 08:51:09;;;;;;;;;;;;;;;14.68;46.61;99539.13;4958330;28;98247;-67
2022/12/23 08:53:35;;;;;;;;;;;;;;;14.71;46.60;99541.22;4925438;28;98268;-64
2022/12/23 08:56:08;;;;;;;;;;;;;;;14.76;46.58;99542.97;4923744;28;125771;-67
2022/12/23 08:58:38;;;;;;;;;;;;;;;14.83;46.40;99545.22;4973851;27;97975;-64
2022/12/23 09:01:05;;;;;;;;;;;;;;;14.89;46.34;99538.53;4938910;28;99625;-65
2022/12/23 09:03:31;;;;;;;;;;;;;;;14.95;46.50;99542.69;4954261;28;98882;-64
2022/12/23 09:05:57;;;;;;;;;;;;;;;15.06;46.21;99543.97;4935362;28;118934;-67
2022/12/23 09:08:23;;;;;;;;;;;;;;;15.20;46.04;99544.59;4938418;28;99200;-64
2022/12/23 09:10:48;;;;;;;;;;;;;;;15.26;45.97;99545.25;4920558;27;119659;-68
2022/12/23 09:13:14;;;;;;;;;;;;;;;15.27;46.23;99548.75;4935824;28;128245;-67
2022/12/23 09:15:43;;;;;;;;;;;;;;;15.28;46.33;99547.63;4956102;28;128146;-68
2022/12/23 09:18:10;;;;;;;;;;;;;;;15.37;46.22;99549.22;4955147;28;122320;-67
2022/12/23 09:20:36;;;;;;;;;;;;;;;15.40;46.20;99551.28;4932299;28;115765;-67
2022/12/23 09:23:02;;;;;;;;;;;;;;;15.45;46.04;99553.84;4938842;28;98243;-65
2022/12/23 09:25:28;;;;;;;;;;;;;;;15.52;46.15;99558.78;4954446;28;98509;-64
2022/12/23 09:27:54;;;;;;;;;;;;;;;15.54;46.14;99564.69;4936617;28;126500;-65
2022/12/23 09:30:20;;;;;;;;;;;;;;;15.53;46.28;99560.41;4920320;28;122757;-65
2022/12/23 09:32:46;;;;;;;;;;;;;;;15.50;46.44;99560.25;4920530;28;127799;-68
2022/12/23 09:35:12;;;;;;;;;;;;;;;15.48;46.27;99557.81;4936823;28;128195;-68
2022/12/23 09:37:38;;;;;;;;;;;;;;;15.52;46.29;99555.25;4952717;28;125493;-65
2022/12/23 09:40:04;;;;;;;;;;;;;;;15.59;46.28;99550.16;4941958;28;124814;-68
2022/12/23 09:42:39;;;;;;;;;;;;;;;15.67;46.31;99558.31;4953630;27;98094;-68
2022/12/23 09:45:15;;;;;;;;;;;;;;;15.79;46.02;99563.06;4969183;28;102693;-68
2022/12/23 09:47:41;;;;;;;;;;;;;;;15.84;46.24;99564.84;4931185;28;99018;-65
2022/12/23 09:50:31;;;;;;;;;;;;;;;16.06;46.04;99561.88;4936614;28;113514;-68
2022/12/23 09:53:04;;;;;;;;;;;;;;;16.14;46.01;99571.13;4947601;28;98355;-65
2022/12/23 09:55:36;;;;;;;;;;;;;;;16.08;46.14;99561.56;4938884;28;122154;-65
2022/12/23 09:58:07;;;;;;;;;;;;;;;16.04;46.02;99568.78;4936463;28;99130;-65
2022/12/23 10:00:39;;;;;;;;;;;;;;;16.09;46.10;99565.88;4954129;28;105667;-65
2022/12/23 10:03:15;;;;;;;;;;;;;;;16.11;46.04;99560.91;4936192;28;98152;-68
2022/12/23 10:05:48;;;;;;;;;;;;;;;16.17;45.94;99563.13;4955011;28;98332;-65
2022/12/23 10:08:35;;;;;;;;;;;;;;;16.25;46.09;99568.84;4955938;28;126445;-65
2022/12/23 10:11:12;;;;;;;;;;;;;;;16.41;45.77;99559.00;4959263;28;98649;-65
2022/12/23 10:13:46;;;;;;;;;;;;;;;16.53;45.77;99558.31;4940101;28;123375;-68
2022/12/23 10:16:19;;;;;;;;;;;;;;;16.63;45.58;99566.91;4937762;28;104330;-66
2022/12/23 10:19:06;;;;;;;;;;;;;;;16.70;45.67;99563.63;4939118;28;98074;-68
2022/12/23 10:21:39;;;;;;;;;;;;;;;16.72;45.79;99568.78;4954070;28;117149;-67
2022/12/23 10:24:11;;;;;;;;;;;;;;;16.77;45.91;99565.88;4937343;28;127549;-68
2022/12/23 10:27:24;;;;;;;;;;;;;;;16.71;45.85;99573.41;4953000;28;120528;-68
2022/12/23 10:29:50;;;;;;;;;;;;;;;16.64;46.11;99573.94;4964367;28;98125;-68
2022/12/23 10:32:20;;;;;;;;;;;;;;;16.62;46.13;99576.19;4936854;28;123446;-66
2022/12/23 10:35:00;;;;;;;;;;;;;;;16.66;46.06;99565.44;4935047;28;126783;-66
2022/12/23 10:37:56;;;;;;;;;;;;;;;16.73;46.08;99573.06;4970350;28;98277;-65
2022/12/23 10:40:26;;;;;;;;;;;;;;;17.08;45.62;99571.75;4923744;28;124304;-68
2022/12/23 10:43:40;;;;;;;;;;;;;;;17.21;45.57;99561.69;4952650;28;123975;-66
2022/12/23 10:46:21;;;;;;;;;;;;;;;17.12;45.91;99561.78;4939436;28;125382;-66
2022/12/23 10:49:08;;;;;;;;;;;;;;;17.08;45.97;99570.94;4938873;28;109081;-66
2022/12/23 10:51:44;;;;;;;;;;;;;;;17.11;45.79;99571.09;4973459;28;98187;-68
2022/12/23 10:54:12;;;;;;;;;;;;;;;17.21;45.97;99566.34;4937904;28;99524;-68
2022/12/23 10:56:39;;;;;;;;;;;;;;;17.22;45.75;99548.91;4952134;28;98547;-68
2022/12/23 10:59:05;;;;;;;;;;;;;;;17.36;45.64;99550.19;4953775;28;99207;-68
2022/12/23 11:01:31;;;;;;;;;;;;;;;17.51;45.67;99546.06;4938283;28;100168;-66
2022/12/23 11:04:06;;;;;;;;;;;;;;;17.56;45.64;99550.50;4938022;28;98023;-68
2022/12/23 11:06:33;;;;;;;;;;;;;;;17.62;45.62;99549.97;4935298;28;98524;-66
2022/12/23 11:09:00;;;;;;;;;;;;;;;17.83;45.45;99560.03;4937553;28;123748;-68
2022/12/23 11:11:59;;;;;;;;;;;;;;;17.88;45.36;99551.63;4957999;28;99036;-68
2022/12/23 11:14:52;;;;;;;;;;;;;;;17.93;45.42;99551.44;4948941;28;98239;-67
2022/12/23 11:17:26;;;;;;;;;;;;;;;17.96;45.42;99552.66;4935388;28;99420;-66
2022/12/23 11:20:16;;;;;;;;;;;;;;;17.91;45.73;99550.97;4953192;28;98208;-66
2022/12/23 11:22:53;;;;;;;;;;;;;;;18.04;45.55;99546.34;4947314;28;98125;-66
2022/12/23 11:25:39;;;;;;;;;;;;;;;18.11;45.55;99550.06;4950475;28;116114;-68
2022/12/23 11:28:15;;;;;;;;;;;;;;;18.05;45.77;99547.94;4953046;28;98889;-68
2022/12/23 11:31:07;;;;;;;;;;;;;;;17.99;45.75;99557.44;4956129;28;98165;-66
2022/12/23 11:33:38;;;;;;;;;;;;;;;17.93;45.94;99558.81;4970293;28;98419;-68
2022/12/23 11:36:16;;;;;;;;;;;;;;;18.09;45.79;99567.94;4937465;28;99773;-68
2022/12/23 11:39:20;;;;;;;;;;;;;;;17.98;45.93;99574.94;4953611;28;98610;-69
2022/12/23 11:41:47;;;;;;;;;;;;;;;18.07;45.77;99570.19;4969253;28;99794;-68
2022/12/23 11:44:21;;;;;;;;;;;;;;;18.05;45.78;99584.16;4950393;28;98532;-66
2022/12/23 11:46:47;;;;;;;;;;;;;;;18.03;45.81;99577.44;4967859;28;98453;-68
2022/12/23 11:49:20;;;;;;;;;;;;;;;18.13;45.91;99579.75;4936828;28;118096;-68
2022/12/23 11:52:00;;;;;;;;;;;;;;;18.16;45.75;99565.44;4952022;28;99991;-67
2022/12/23 11:54:26;;;;;;;;;;;;;;;18.15;45.92;99574.75;4966399;28;99877;-66
2022/12/23 11:56:52;;;;;;;;;;;;;;;18.25;45.65;99578.97;4936200;28;100673;-66
2022/12/23 11:59:31;;;;;;;;;;;;;;;18.27;45.67;99584.88;4938040;28;127954;-68
2022/12/23 12:01:59;;;;;;;;;;;;;;;18.32;45.76;99585.47;4965135;28;98349;-69
2022/12/23 12:04:25;;;;;;;;;;;;;;;18.29;45.99;99586.13;4920901;28;99607;-69
2022/12/23 12:06:51;;;;;;;;;;;;;;;18.17;46.03;99585.31;4952541;28;98314;-66
2022/12/23 12:09:16;;;;;;;;;;;;;;;18.16;45.93;99581.81;4940859;28;127401;-69
2022/12/23 12:11:51;;;;;;;;;;;;;;;18.06;46.09;99590.41;4948821;28;124440;-66
2022/12/23 12:14:42;;;;;;;;;;;;;;;17.90;46.48;99593.00;4956528;28;99843;-68
2022/12/23 12:17:07;;;;;;;;;;;;;;;17.72;46.50;99595.06;4956400;28;113830;-66
2022/12/23 12:19:57;;;;;;;;;;;;;;;17.58;46.74;99600.03;4971057;28;99495;-69
2022/12/23 12:22:39;;;;;;;;;;;;;;;17.46;46.67;99602.69;4956808;28;98358;-66
2022/12/23 12:25:22;;;;;;;;;;;;;;;17.38;46.70;99604.34;4941048;28;98319;-68
2022/12/23 12:27:59;;;;;;;;;;;;;;;17.28;46.89;99612.91;4955997;28;100470;-69
2022/12/23 12:30:29;;;;;;;;;;;;;;;17.20;46.93;99611.84;4922749;28;130361;-66
2022/12/23 12:33:38;;;;;;;;;;;;;;;17.14;46.82;99613.19;4940293;28;114043;-68
2022/12/23 12:36:30;;;;;;;;;;;;;;;17.06;46.94;99605.88;4897176;28;99943;-68
2022/12/23 12:38:56;;;;;;;;;;;;;;;17.03;46.96;99604.63;4881765;28;99604;-68
2022/12/23 12:41:26;;;;;;;;;;;;;;;16.96;46.86;99609.00;4927490;28;115053;-68
2022/12/23 12:43:59;;;;;;;;;;;;;;;16.91;47.00;99605.34;4953552;28;99945;-66
2022/12/23 12:46:45;;;;;;;;;;;;;;;16.88;46.85;99591.59;4954016;28;98268;-68
2022/12/23 12:49:25;;;;;;;;;;;;;;;16.85;46.92;99601.19;4958548;28;97809;-66
2022/12/23 12:52:19;;;;;;;;;;;;;;;16.81;46.97;99599.47;4949185;28;109711;-66
2022/12/23 12:55:03;;;;;;;;;;;;;;;16.76;47.06;99599.66;4951927;28;100096;-69
2022/12/23 12:57:30;;;;;;;;;;;;;;;16.72;47.07;99610.38;4971583;28;98403;-68
2022/12/23 12:59:57;;;;;;;;;;;;;;;16.65;46.97;99610.88;4940033;28;99774;-68
2022/12/23 13:02:44;;;;;;;;;;;;;;;16.61;47.03;99609.94;4922164;28;112056;-68
2022/12/23 13:05:43;;;;;;;;;;;;;;;16.54;47.15;99617.03;4951722;28;99827;-68
2022/12/23 13:08:35;;;;;;;;;;;;;;;16.48;47.01;99605.53;4954040;28;98200;-66
2022/12/23 13:11:04;;;;;;;;;;;;;;;16.44;46.85;99618.19;4942246;28;112952;-66
2022/12/23 13:14:14;;;;;;;;;;;;;;;16.42;47.06;99610.34;4949997;28;99924;-66
2022/12/23 13:17:01;;;;;;;;;;;;;;;16.41;47.14;99611.47;4912534;28;127658;-66
2022/12/23 13:19:41;;;;;;;;;;;;;;;16.42;47.01;99612.28;4939712;28;121832;-66
2022/12/23 13:22:12;;;;;;;;;;;;;;;16.43;47.02;99605.72;4936204;28;100732;-67
2022/12/23 13:25:17;;;;;;;;;;;;;;;16.43;47.09;99603.00;4954052;28;126739;-66
2022/12/23 13:27:52;;;;;;;;;;;;;;;16.41;47.08;99600.59;4968403;28;117265;-68
2022/12/23 13:30:20;;;;;;;;;;;;;;;16.37;47.01;99609.75;4954548;28;98587;-66
2022/12/23 13:33:05;;;;;;;;;;;;;;;16.35;47.13;99596.50;4941856;28;98220;-68